Wootton Bassett, United Kingdom
Current Conditions -  °F | °C
As of 11:58 PM on Monday 20 Oct 2014 (Local Time) from EGVA Reporting Station
Overcast Overcast  
Wind Chill: 52°   Ceiling: 17000
Heat Index: 52°   Visibility: 6mi
Dew Point: 49°   Wind: 14mph
Humidity: 90%   Direction: 220°SW
Pressure: 29.81"   Gusts: NA
Location:  51.54°N, 1.9°W
Report Text: EGVA 202258Z AUTO 22012KT 9999 FEW045 SCT049 OVC170 11/10 A2981 RMK AO2 SLP098 P2400 T01120096
Loading
Personal Weather Stations






























Interactive Weather Map
Tropical Storm Tracking
New forecast layout! Learn more

10-Day Weather Forecast

Advertisements
Track Severe Weather on mobile